Aeroporto :
LOGIN :

Iscrizione | Disclaimer

   EN    FR    IT 

 










Sommario :    VFR   VFR Marginale   IFR   IFR Intensivo   IFR Molto Intensivo
Visibilità : 
Base nubi : 
>= 8 km
>= 3000ft
5 / 8 km
1000 / 3000 ft
1500m / 5 km
500 / 1000 ft
800 / 1500m
200 / 500 ft
< 800m
< 200 ft
Simboli :   Temporali  Nebbia  Neve Forte  Precipitazioni Forti  Vento > 20 kt
SIGMETs :   Varie  Temporali  Ghiacco  Turbolenza  Onda orograficha  Ceneri Vulcaniche






- Altitudine del aeroporto : 128 ft


ETND - Diepholz

ULTIMO METAR :
  • 121320Z 18011KT 9999 -SHRA FEW015 SCT022TCU BKN055 07/04 Q0999 BLU BLU TEMPO GRN

METARs OBSOLETI :
  • 121241Z 20011KT 9000 -SHRA BKN022TCU 06/03 Q1000 WHT BLU TEMPO GRN
  • 121220Z 18012G23KT 9999 FEW022 BKN025 07/03 Q1000 BLU BLU TEMPO GRN
  • 121120Z 20013KT 9999 FEW020 BKN026 07/03 Q1001 BLU BLU TEMPO GRN
  • 121058Z 20009KT 9999 FEW019 BKN026 07/03 Q1001 BLU BLU TEMPO GRN

TAF TAF ETND
Valido dal 12 a 12 ore il 12 a 21 ore UTC


121120Z 1212/1221 19010KT 9999 NSW SCT020 BKN030
TEMPO 1212/1218 20015G27KT 4000 SHRA BKN010 BKN020CB BY ETGL



MetMap, La meteo Aeronautica in un colpo d'occhio ! - Copyright ORBIFLY Dicembre 2007 - Disclaimer

ORBIFLY MET'MAP TEAM :

Programmazione e sviluppo : Alexandra Zaïnal
Concezione e sviluppo : Baudouin d'Aumeries
Co-Programmazione e sviluppo : Marc-Olivier Méhu
Supporto tecnico e logistico : Manuel Goepfert
Aiuto per la traduzione : Arnaldo La Scala

Contatto : metmap@orbifly.com




FONTI E CREDITI :

   NOAA